createdAt,value
2023-04-19T00:01:00.177Z,24.00
2023-04-19T00:03:32.478Z,24.40
2023-04-19T00:06:03.896Z,25.10
2023-04-19T00:08:35.046Z,24.30
2023-04-19T00:11:08.896Z,24.40
2023-04-19T00:13:39.979Z,24.60
2023-04-19T00:16:11.422Z,25.10
2023-04-19T00:18:52.936Z,25.70
2023-04-19T00:21:23.836Z,26.00
2023-04-19T00:23:57.906Z,25.80
2023-04-19T00:26:31.478Z,25.50
2023-04-19T00:29:02.462Z,25.10
2023-04-19T00:31:33.459Z,25.60
2023-04-19T00:34:04.405Z,25.60
2023-04-19T00:36:36.798Z,25.60
2023-04-19T00:39:08.154Z,25.70
2023-04-19T00:41:41.691Z,25.70
2023-04-19T00:44:12.738Z,25.60
2023-04-19T00:46:45.359Z,25.40
2023-04-19T00:49:16.757Z,25.70
2023-04-19T00:51:47.899Z,25.70
2023-04-19T00:54:19.286Z,25.80
2023-04-19T00:56:53.128Z,25.30
2023-04-19T00:59:24.897Z,25.00
2023-04-19T01:01:59.051Z,24.40
2023-04-19T01:04:30.583Z,24.10
2023-04-19T01:07:01.664Z,24.60
2023-04-19T01:09:32.836Z,24.50
2023-04-19T01:12:09.531Z,24.10
2023-04-19T01:14:40.557Z,24.10
2023-04-19T01:17:11.872Z,24.30
2023-04-19T01:19:42.807Z,23.60
2023-04-19T01:22:19.605Z,23.10
2023-04-19T01:24:53.059Z,22.40
2023-04-19T01:27:24.073Z,21.90
2023-04-19T01:29:55.028Z,21.70
2023-04-19T01:32:26.469Z,21.70
2023-04-19T01:34:57.476Z,20.40
2023-04-19T01:37:31.155Z,20.80
2023-04-19T01:40:05.699Z,19.90
2023-04-19T01:42:36.708Z,19.60
2023-04-19T01:45:08.972Z,19.30
2023-04-19T01:47:40.043Z,19.30
2023-04-19T01:50:12.178Z,18.80
2023-04-19T01:52:45.709Z,18.60
2023-04-19T01:55:16.617Z,17.90
2023-04-19T01:57:47.622Z,17.70
2023-04-19T02:00:19.291Z,17.40
2023-04-19T02:02:50.527Z,17.60
2023-04-19T02:05:24.770Z,17.50
2023-04-19T02:07:58.417Z,17.40
2023-04-19T02:10:29.608Z,16.70
2023-04-19T02:13:00.586Z,15.60
2023-04-19T02:15:31.660Z,15.70
2023-04-19T02:18:06.788Z,15.40
2023-04-19T02:20:37.952Z,15.60
2023-04-19T02:23:11.406Z,15.50
2023-04-19T02:25:42.422Z,15.40
2023-04-19T02:28:13.373Z,15.10
2023-04-19T02:30:44.413Z,15.00
2023-04-19T02:33:15.429Z,14.30
2023-04-19T02:35:46.513Z,14.10
2023-04-19T02:38:20.157Z,13.90
2023-04-19T02:40:51.206Z,13.80
2023-04-19T02:43:23.715Z,13.20
2023-04-19T02:45:54.753Z,13.10
2023-04-19T02:48:25.733Z,13.70
2023-04-19T02:50:56.691Z,13.10
2023-04-19T02:53:33.147Z,12.50
2023-04-19T02:56:06.243Z,12.70
2023-04-19T02:58:40.309Z,12.10
2023-04-19T03:01:12.001Z,12.40
2023-04-19T03:03:43.160Z,12.90
2023-04-19T03:06:14.960Z,12.50
2023-04-19T03:08:49.018Z,12.20
2023-04-19T03:11:21.973Z,11.60
2023-04-19T03:13:53.031Z,12.40
2023-04-19T03:16:24.010Z,11.70
2023-04-19T03:18:55.121Z,11.80
2023-04-19T03:21:27.575Z,11.20
2023-04-19T03:24:01.011Z,9.80
2023-04-19T03:26:32.224Z,10.10
2023-04-19T03:29:05.610Z,10.50
2023-04-19T03:31:36.546Z,10.30
2023-04-19T03:34:08.870Z,10.20
2023-04-19T03:36:39.746Z,9.60
2023-04-19T03:39:13.181Z,7.30
2023-04-19T03:41:45.576Z,7.90
2023-04-19T03:44:16.657Z,8.10
2023-04-19T03:46:51.510Z,7.50
2023-04-19T03:49:22.425Z,7.80
2023-04-19T03:51:56.193Z,7.30
2023-04-19T03:54:29.698Z,7.40
2023-04-19T03:57:00.702Z,8.10
2023-04-19T03:59:34.418Z,6.90
2023-04-19T04:02:05.687Z,6.60
2023-04-19T04:04:36.982Z,5.90
2023-04-19T04:07:08.111Z,6.70
2023-04-19T04:09:41.664Z,6.80
2023-04-19T04:12:13.375Z,6.00
2023-04-19T04:14:44.315Z,6.20
2023-04-19T04:17:18.073Z,5.70
2023-04-19T04:19:49.056Z,5.70
2023-04-19T04:22:23.172Z,5.80
2023-04-19T04:25:01.502Z,5.60
2023-04-19T04:27:34.850Z,5.90
2023-04-19T04:30:07.126Z,6.30
2023-04-19T04:32:38.436Z,5.70
2023-04-19T04:35:11.557Z,5.60
2023-04-19T04:37:43.915Z,5.70
2023-04-19T04:40:18.164Z,5.50
2023-04-19T04:42:49.649Z,5.50
2023-04-19T04:45:20.860Z,5.40
2023-04-19T04:47:52.419Z,5.20
2023-04-19T04:50:23.366Z,5.60
2023-04-19T04:52:55.024Z,5.50
2023-04-19T04:55:28.586Z,5.50
2023-04-19T04:57:59.556Z,5.50
2023-04-19T05:00:33.181Z,5.70
2023-04-19T05:03:04.889Z,6.20
2023-04-19T05:05:36.185Z,5.60
2023-04-19T05:08:07.704Z,6.20
2023-04-19T05:10:41.382Z,6.00
2023-04-19T05:13:12.366Z,5.90
2023-04-19T05:15:43.392Z,5.40
2023-04-19T05:18:14.316Z,5.50
2023-04-19T05:20:46.883Z,5.40
2023-04-19T05:23:18.798Z,4.40
2023-04-19T05:25:52.536Z,4.40
2023-04-19T05:28:23.552Z,4.90
2023-04-19T05:30:55.564Z,4.80
2023-04-19T05:33:26.614Z,5.50
2023-04-19T05:35:57.494Z,4.80
2023-04-19T05:38:28.719Z,4.80
2023-04-19T05:41:02.421Z,4.10
2023-04-19T05:43:33.360Z,4.60
2023-04-19T05:46:04.271Z,3.50
2023-04-19T05:48:35.480Z,3.60
2023-04-19T05:51:06.833Z,3.30
2023-04-19T05:53:37.793Z,2.10
2023-04-19T05:56:11.392Z,1.00
2023-04-19T05:58:42.414Z,1.00
2023-04-19T06:01:13.625Z,1.00
2023-04-19T06:03:44.788Z,1.00
2023-04-19T06:06:16.178Z,1.00
2023-04-19T06:08:47.339Z,1.00
2023-04-19T06:11:31.544Z,1.00
2023-04-19T06:14:09.874Z,1.00
2023-04-19T06:16:40.893Z,1.00
2023-04-19T06:19:12.162Z,1.00
2023-04-19T06:21:43.070Z,1.00
2023-04-19T06:24:14.157Z,1.00
2023-04-19T06:26:49.805Z,1.00
2023-04-19T06:29:21.919Z,1.00
2023-04-19T06:31:53.126Z,1.00
2023-04-19T06:34:26.957Z,1.00
2023-04-19T06:36:57.885Z,1.00
2023-04-19T06:39:28.851Z,1.00
2023-04-19T06:42:02.528Z,1.00
2023-04-19T06:44:33.491Z,1.00
2023-04-19T06:47:04.407Z,1.00
2023-04-19T06:49:35.663Z,1.00
2023-04-19T06:52:06.596Z,1.00
2023-04-19T06:54:37.620Z,1.00
2023-04-19T06:57:11.192Z,1.00
2023-04-19T06:59:42.210Z,1.00
2023-04-19T07:02:13.787Z,1.00
2023-04-19T07:04:45.005Z,1.00
2023-04-19T07:07:16.760Z,1.00
2023-04-19T07:09:47.747Z,1.00
2023-04-19T07:12:22.020Z,1.00
2023-04-19T07:14:56.577Z,1.00
2023-04-19T07:17:27.892Z,1.00
2023-04-19T07:19:58.863Z,1.00
2023-04-19T07:22:29.789Z,1.00
2023-04-19T07:25:00.801Z,1.00
2023-04-19T07:27:34.368Z,1.00
2023-04-19T07:30:05.346Z,1.00
2023-04-19T07:32:36.507Z,1.00
2023-04-19T07:35:08.559Z,1.00
2023-04-19T07:37:39.452Z,1.00
2023-04-19T07:40:11.839Z,1.00
2023-04-19T07:42:46.224Z,1.00
2023-04-19T07:45:17.408Z,1.00
2023-04-19T07:47:48.343Z,1.00
2023-04-19T07:50:19.729Z,1.00
2023-04-19T07:52:51.944Z,1.00
2023-04-19T07:55:23.310Z,1.00
2023-04-19T07:57:56.891Z,1.00
2023-04-19T08:00:30.011Z,1.00
2023-04-19T08:03:01.185Z,1.00
2023-04-19T08:05:32.674Z,1.00
2023-04-19T08:08:04.041Z,1.00
2023-04-19T08:10:36.018Z,1.00
2023-04-19T08:13:09.660Z,1.00
2023-04-19T08:18:14.824Z,1.00
2023-04-19T08:20:46.626Z,1.00
2023-04-19T08:23:22.727Z,1.00
2023-04-19T08:25:56.960Z,1.00
2023-04-19T08:28:30.529Z,1.00
2023-04-19T08:31:02.627Z,1.00
2023-04-19T08:33:33.574Z,1.00
2023-04-19T08:36:04.511Z,1.00
2023-04-19T08:38:35.468Z,1.00
2023-04-19T08:41:06.314Z,1.00
2023-04-19T08:43:41.836Z,1.00
2023-04-19T08:46:14.961Z,1.00
2023-04-19T08:48:47.678Z,1.00
2023-04-19T08:51:20.646Z,1.00
2023-04-19T08:53:52.573Z,1.00
2023-04-19T08:56:34.805Z,1.00
2023-04-19T08:59:17.957Z,1.00
2023-04-19T09:01:50.842Z,1.00
2023-04-19T09:04:36.514Z,1.00
2023-04-19T09:07:08.657Z,1.00
2023-04-19T09:09:55.444Z,1.00
2023-04-19T09:12:31.181Z,1.00
2023-04-19T09:15:06.873Z,1.00
2023-04-19T09:17:41.013Z,1.00
2023-04-19T09:20:12.340Z,1.00
2023-04-19T09:22:43.376Z,1.00
2023-04-19T09:28:12.769Z,1.00
2023-04-19T09:30:58.652Z,1.00
2023-04-19T09:33:36.391Z,1.00
2023-04-19T09:36:08.782Z,1.00
2023-04-19T09:38:50.522Z,1.00
2023-04-19T09:41:21.752Z,1.00
2023-04-19T09:44:07.772Z,1.00
2023-04-19T09:46:51.002Z,1.00
2023-04-19T09:49:41.824Z,1.00
2023-04-19T09:52:17.747Z,1.00
2023-04-19T09:54:53.867Z,1.00
2023-04-19T09:57:24.919Z,1.00
2023-04-19T09:59:56.000Z,1.00
2023-04-19T10:02:33.114Z,1.00
2023-04-19T10:07:40.909Z,1.00
2023-04-19T10:10:20.500Z,1.00
2023-04-19T10:15:47.177Z,1.00
2023-04-19T10:18:24.044Z,1.00
2023-04-19T10:21:01.730Z,1.00
2023-04-19T10:23:39.976Z,1.00
2023-04-19T10:26:11.382Z,1.00
2023-04-19T10:28:44.334Z,1.00
2023-04-19T10:31:16.148Z,1.00
2023-04-19T10:33:51.582Z,1.00
2023-04-19T10:36:24.612Z,1.00
2023-04-19T10:38:55.909Z,1.00
2023-04-19T10:41:27.906Z,1.00
2023-04-19T10:44:13.163Z,1.00
2023-04-19T10:46:44.066Z,1.00
2023-04-19T10:49:17.772Z,1.00
2023-04-19T10:51:55.102Z,1.00
2023-04-19T10:54:34.360Z,1.00
2023-04-19T10:57:07.263Z,1.00
2023-04-19T10:59:40.532Z,1.00
2023-04-19T11:02:34.560Z,1.00
2023-04-19T11:05:10.227Z,1.00
2023-04-19T11:07:42.625Z,1.00
2023-04-19T11:10:14.347Z,1.00
2023-04-19T11:12:46.683Z,1.00
2023-04-19T11:15:17.701Z,1.00
2023-04-19T11:18:08.823Z,1.00
2023-04-19T11:20:46.553Z,1.00
2023-04-19T11:23:21.942Z,1.00
2023-04-19T11:25:58.400Z,1.00
2023-04-19T11:28:29.439Z,1.00
2023-04-19T11:31:00.735Z,1.00
2023-04-19T11:33:36.278Z,1.00
2023-04-19T11:36:15.382Z,1.00
2023-04-19T11:38:52.006Z,1.00
2023-04-19T11:41:23.167Z,1.00
2023-04-19T11:43:54.773Z,1.00
2023-04-19T11:46:28.121Z,1.00
2023-04-19T11:49:02.356Z,1.00
2023-04-19T11:51:37.219Z,1.00
2023-04-19T11:54:18.648Z,1.00
2023-04-19T11:57:06.705Z,1.00
2023-04-19T11:59:39.052Z,1.00
2023-04-19T12:02:11.462Z,1.00
2023-04-19T12:04:43.998Z,1.00
2023-04-19T12:07:17.796Z,1.00
2023-04-19T12:09:52.558Z,1.00
2023-04-19T12:12:35.036Z,1.00
2023-04-19T12:15:06.044Z,1.00
2023-04-19T12:17:40.090Z,1.00
2023-04-19T12:20:16.029Z,1.00
2023-04-19T12:22:49.850Z,1.00
2023-04-19T12:25:21.257Z,1.00
2023-04-19T12:27:52.181Z,1.00
2023-04-19T12:30:23.386Z,1.00
2023-04-19T12:32:58.191Z,1.00
2023-04-19T12:35:30.365Z,1.00
2023-04-19T12:38:03.954Z,1.00
2023-04-19T12:40:35.282Z,1.00
2023-04-19T12:43:06.225Z,1.00
2023-04-19T12:45:37.315Z,1.00
2023-04-19T12:48:09.019Z,1.00
2023-04-19T12:50:40.057Z,1.00
2023-04-19T12:53:13.534Z,1.00
2023-04-19T12:55:47.446Z,1.00
2023-04-19T12:58:18.971Z,1.00
2023-04-19T13:00:52.395Z,1.00
2023-04-19T13:03:23.528Z,1.00
2023-04-19T13:05:54.866Z,1.00
2023-04-19T13:08:43.364Z,1.00
2023-04-19T13:11:17.926Z,1.00
2023-04-19T13:13:48.915Z,1.00
2023-04-19T13:16:19.873Z,1.00
2023-04-19T13:18:51.149Z,1.00
2023-04-19T13:21:23.656Z,1.00
2023-04-19T13:24:01.207Z,1.00
2023-04-19T13:26:34.134Z,1.00
2023-04-19T13:29:05.247Z,1.00
2023-04-19T13:31:36.193Z,1.00
2023-04-19T13:34:07.170Z,1.00
2023-04-19T13:36:38.130Z,1.00
2023-04-19T13:39:12.988Z,1.00
2023-04-19T13:41:44.022Z,1.00
2023-04-19T13:44:15.854Z,1.00
2023-04-19T13:46:47.398Z,1.00
2023-04-19T13:49:18.451Z,1.00
2023-04-19T13:51:51.030Z,1.00
2023-04-19T13:54:25.040Z,1.00
2023-04-19T13:56:56.350Z,1.00
2023-04-19T13:59:27.504Z,1.00
2023-04-19T14:01:58.694Z,1.00
2023-04-19T14:04:29.720Z,1.00
2023-04-19T14:07:01.129Z,1.00
2023-04-19T14:09:34.718Z,1.00
2023-04-19T14:12:05.897Z,1.00
2023-04-19T14:14:36.937Z,1.00
2023-04-19T14:17:07.863Z,1.00
2023-04-19T14:19:39.276Z,1.00
2023-04-19T14:22:10.336Z,1.00
2023-04-19T14:24:43.888Z,1.00
2023-04-19T14:27:15.090Z,1.00
2023-04-19T14:29:46.096Z,1.00
2023-04-19T14:32:25.981Z,1.00
2023-04-19T14:34:58.131Z,1.00
2023-04-19T14:37:29.262Z,1.00
2023-04-19T14:40:02.938Z,1.00
2023-04-19T14:42:33.947Z,1.00
2023-04-19T14:45:04.852Z,1.00
2023-04-19T14:47:36.143Z,1.00
2023-04-19T14:50:07.543Z,1.00
2023-04-19T14:52:38.437Z,1.00
2023-04-19T14:55:13.650Z,1.00
2023-04-19T14:57:44.505Z,1.00
2023-04-19T15:00:16.646Z,1.00
2023-04-19T15:02:47.817Z,1.00
2023-04-19T15:05:19.069Z,1.00
2023-04-19T15:07:50.708Z,1.00
2023-04-19T15:10:26.956Z,1.00
2023-04-19T15:12:58.173Z,1.00
2023-04-19T15:15:29.256Z,1.00
2023-04-19T15:18:00.251Z,1.00
2023-04-19T15:20:31.404Z,1.00
2023-04-19T15:23:02.450Z,1.00
2023-04-19T15:25:38.013Z,1.00
2023-04-19T15:28:08.918Z,1.00
2023-04-19T15:30:39.786Z,1.00
2023-04-19T15:33:11.331Z,1.00
2023-04-19T15:35:42.295Z,1.00
2023-04-19T15:38:13.244Z,1.00
2023-04-19T15:40:46.741Z,1.00
2023-04-19T15:43:17.893Z,1.00
2023-04-19T15:45:49.013Z,1.00
2023-04-19T15:48:20.727Z,1.00
2023-04-19T15:50:54.285Z,1.00
2023-04-19T15:53:25.330Z,1.00
2023-04-19T15:55:59.461Z,1.00
2023-04-19T15:58:30.403Z,1.00
2023-04-19T16:01:01.381Z,1.00
2023-04-19T16:03:32.483Z,1.00
2023-04-19T16:06:03.742Z,1.00
2023-04-19T16:08:34.651Z,1.00
2023-04-19T16:11:08.531Z,1.00
2023-04-19T16:13:39.482Z,1.00
2023-04-19T16:16:10.717Z,1.00
2023-04-19T16:18:41.704Z,1.00
2023-04-19T16:21:13.480Z,1.00
2023-04-19T16:23:44.431Z,1.00
2023-04-19T16:26:18.021Z,1.00
2023-04-19T16:28:49.617Z,1.00
2023-04-19T16:31:20.692Z,1.00
2023-04-19T16:33:52.067Z,1.00
2023-04-19T16:36:22.991Z,1.00
2023-04-19T16:38:54.141Z,1.00
2023-04-19T16:41:27.864Z,1.00
2023-04-19T16:43:58.850Z,1.00
2023-04-19T16:46:29.912Z,1.00
2023-04-19T16:49:01.192Z,1.00
2023-04-19T16:51:32.277Z,1.00
2023-04-19T16:54:05.917Z,1.00
2023-04-19T16:56:41.895Z,1.00
2023-04-19T16:59:12.799Z,1.00
2023-04-19T17:01:44.459Z,1.00
2023-04-19T17:04:15.639Z,1.00
2023-04-19T17:06:46.816Z,1.00
2023-04-19T17:09:18.051Z,1.00
2023-04-19T17:11:51.732Z,1.00
2023-04-19T17:14:22.701Z,1.00
2023-04-19T17:16:54.107Z,1.00
2023-04-19T17:19:25.133Z,1.00
2023-04-19T17:21:56.767Z,1.00
2023-04-19T17:24:27.721Z,1.00
2023-04-19T17:27:01.220Z,1.00
2023-04-19T17:29:32.613Z,1.00
2023-04-19T17:32:03.821Z,1.00
2023-04-19T17:34:36.675Z,1.00
2023-04-19T17:37:08.129Z,1.00
2023-04-19T17:39:39.018Z,1.00
2023-04-19T17:42:12.622Z,1.00
2023-04-19T17:44:43.675Z,1.00
2023-04-19T17:47:14.610Z,1.00
2023-04-19T17:49:48.606Z,1.00
2023-04-19T17:52:19.621Z,1.00
2023-04-19T17:54:51.527Z,1.00
2023-04-19T17:57:28.665Z,1.00
2023-04-19T18:00:00.379Z,1.00
2023-04-19T18:02:31.491Z,1.00
2023-04-19T18:05:02.874Z,1.00
2023-04-19T18:07:34.370Z,1.00
2023-04-19T18:10:06.046Z,1.00
2023-04-19T18:12:39.620Z,1.00
2023-04-19T18:15:11.996Z,1.00
2023-04-19T18:17:42.923Z,1.00
2023-04-19T18:20:14.606Z,1.00
2023-04-19T18:22:45.827Z,1.00
2023-04-19T18:25:17.082Z,1.00
2023-04-19T18:27:53.751Z,1.00
2023-04-19T18:30:27.665Z,1.00
2023-04-19T18:33:01.033Z,1.00
2023-04-19T18:35:33.102Z,1.00
2023-04-19T18:38:06.219Z,1.00
2023-04-19T18:40:37.246Z,1.00
2023-04-19T18:43:10.835Z,1.00
2023-04-19T18:45:41.949Z,1.00
2023-04-19T18:48:13.034Z,1.00
2023-04-19T18:50:44.028Z,1.00
2023-04-19T18:53:15.311Z,1.00
2023-04-19T18:55:46.457Z,1.00
2023-04-19T18:58:20.122Z,1.00
2023-04-19T19:00:52.399Z,1.00
2023-04-19T19:05:58.844Z,1.00
2023-04-19T19:08:30.451Z,1.00
2023-04-19T19:13:38.687Z,1.00
2023-04-19T19:16:09.780Z,1.00
2023-04-19T19:18:41.159Z,1.00
2023-04-19T19:21:12.142Z,1.00
2023-04-19T19:23:43.022Z,1.00
2023-04-19T19:26:15.274Z,1.00
2023-04-19T19:28:49.162Z,1.00
2023-04-19T19:31:20.158Z,1.00
2023-04-19T19:34:04.176Z,1.00
2023-04-19T19:36:42.468Z,1.00
2023-04-19T19:39:13.622Z,1.00
2023-04-19T19:44:24.317Z,1.00
2023-04-19T19:46:56.409Z,1.00
2023-04-19T19:49:27.615Z,1.00
2023-04-19T19:51:59.672Z,1.00
2023-04-19T19:54:30.890Z,1.00
2023-04-19T19:59:39.347Z,1.00
2023-04-19T20:02:11.318Z,1.00
2023-04-19T20:04:43.821Z,1.00
2023-04-19T20:09:51.056Z,1.00
2023-04-19T20:12:22.011Z,1.00
2023-04-19T20:14:55.624Z,1.00
2023-04-19T20:17:26.886Z,1.00
2023-04-19T20:19:58.387Z,1.00
2023-04-19T20:22:29.426Z,1.00
2023-04-19T20:25:00.637Z,1.00
2023-04-19T20:27:31.723Z,1.00
2023-04-19T20:30:05.201Z,1.00
2023-04-19T20:32:36.637Z,1.00
2023-04-19T20:35:12.124Z,1.00
2023-04-19T20:37:44.572Z,1.00
2023-04-19T20:40:17.782Z,1.00
2023-04-19T20:42:49.045Z,1.00
2023-04-19T20:45:25.718Z,1.00
2023-04-19T20:47:58.579Z,1.00
2023-04-19T20:50:29.878Z,1.00
2023-04-19T20:53:00.980Z,1.00
2023-04-19T20:55:33.594Z,1.00
2023-04-19T20:58:04.776Z,1.00
2023-04-19T21:00:38.315Z,1.00
2023-04-19T21:03:09.358Z,1.00
2023-04-19T21:05:40.387Z,1.00
2023-04-19T21:08:11.423Z,1.00
2023-04-19T21:10:42.413Z,1.00
2023-04-19T21:13:13.877Z,1.00
2023-04-19T21:15:47.529Z,1.00
2023-04-19T21:18:18.565Z,1.00
2023-04-19T21:20:49.571Z,1.00
2023-04-19T21:23:21.030Z,1.00
2023-04-19T21:25:52.090Z,1.00
2023-04-19T21:28:23.107Z,1.00
2023-04-19T21:31:02.994Z,1.00
2023-04-19T21:33:34.138Z,1.00
2023-04-19T21:36:05.227Z,1.00
2023-04-19T21:38:37.919Z,1.00
2023-04-19T21:41:10.954Z,1.00
2023-04-19T21:43:41.973Z,1.00
2023-04-19T21:46:15.546Z,1.00
2023-04-19T21:48:46.489Z,1.00
2023-04-19T21:51:17.501Z,1.00
2023-04-19T21:53:48.495Z,1.00
2023-04-19T21:56:19.505Z,1.00
2023-04-19T21:58:50.559Z,1.00
2023-04-19T22:01:24.129Z,1.00
2023-04-19T22:03:55.313Z,1.00
2023-04-19T22:06:26.562Z,1.00
2023-04-19T22:08:59.390Z,1.00
2023-04-19T22:11:31.524Z,1.00
2023-04-19T22:14:04.862Z,1.00
2023-04-19T22:16:42.451Z,1.00
2023-04-19T22:19:13.685Z,1.00
2023-04-19T22:21:44.880Z,1.00
2023-04-19T22:24:16.521Z,1.00
2023-04-19T22:26:47.410Z,1.00
2023-04-19T22:29:21.112Z,1.00
2023-04-19T22:31:55.692Z,1.00
2023-04-19T22:34:26.739Z,1.00
2023-04-19T22:36:57.790Z,1.00
2023-04-19T22:39:28.818Z,1.00
2023-04-19T22:41:59.837Z,1.00
2023-04-19T22:44:31.079Z,1.00
2023-04-19T22:47:05.430Z,1.00
2023-04-19T22:49:36.542Z,1.00
2023-04-19T22:52:08.183Z,1.00
2023-04-19T22:54:39.060Z,1.00
2023-04-19T22:57:11.405Z,1.00
2023-04-19T22:59:42.660Z,1.00
2023-04-19T23:02:16.247Z,1.00
2023-04-19T23:04:48.646Z,1.00
2023-04-19T23:07:22.106Z,1.00
2023-04-19T23:09:57.959Z,1.00
2023-04-19T23:12:40.130Z,1.00
2023-04-19T23:15:12.633Z,1.00
2023-04-19T23:17:44.288Z,1.00
2023-04-19T23:20:15.946Z,1.00
2023-04-19T23:22:46.892Z,1.00
2023-04-19T23:25:17.804Z,1.00
2023-04-19T23:27:51.979Z,1.00
2023-04-19T23:30:23.105Z,1.00
2023-04-19T23:32:53.971Z,1.00
2023-04-19T23:35:25.288Z,1.00
2023-04-19T23:37:58.136Z,1.00
2023-04-19T23:40:29.144Z,1.00
2023-04-19T23:43:02.582Z,1.00
2023-04-19T23:48:53.621Z,1.00
2023-04-19T23:51:24.486Z,1.00
2023-04-19T23:53:55.583Z,1.00
2023-04-19T23:56:31.849Z,1.00
2023-04-19T23:59:05.540Z,1.00
